Greensboro Piedmont-Triad Airport (GSO)

 

Airport Diagram
Current Weather/Forecast (MVFR Conditions)
METAR KGSO 172054Z 13010KT 3SM -RA BR BKN032 OVC044 06/03 A3012 RMK AO2 RAB12 PRESFR SLP203 P0002 60002 T00560033 58033
TAF KGSO 171900Z 1719/1818 11005KT P6SM BKN020 OVC120 FM172100 18006KT P6SM SCT035 OVC100 FM180000 21004KT 4SM -RA BR OVC015 FM180600 23002KT 6SM BR OVC025 FM180900 00000KT 3SM BR OVC005 FM181400 31004KT P6SM BKN015

All Charts
General
Chart Name Download
AIRPORT DIAGRAM
TAKEOFF MINIMUMS
ALTERNATE MINIMUMS

Departures
Chart Name Download
QUAKER SEVEN
TRIAD NINE
TRSHA ONE (RNAV)

Arrivals
Chart Name Download
BLOCC TWO
BROOK THREE
HENBY THREE
SMOKN THREE
TRAKS TWO (RNAV)

Approaches
Chart Name Download
ILS OR LOC RWY 05L
ILS OR LOC RWY 05R
ILS OR LOC RWY 23L
ILS OR LOC RWY 23R
ILS Y OR LOC/DME Y RWY 32
ILS Z OR LOC/DME Z RWY 32
ILS RWY 23L (CAT II)
ILS RWY 05L (CAT II - III)
ILS RWY 05R (SA CAT II)
RNAV (GPS) RWY 05L
RNAV (GPS) RWY 05R
RNAV (GPS) RWY 14
RNAV (GPS) RWY 23L
RNAV (GPS) RWY 23R
RNAV (GPS) RWY 32
VOR/DME RWY 23L


Inbound Traffic (Arrivals)

No inbound traffic.


Outbound Traffic (Departures)

No outbound traffic.